sensor_id;sensor_type;location;lat;lon;timestamp;P1;durP1;ratioP1;P2;durP2;ratioP2
34567;SDS011;20806;50.746;7.116;2022-08-21T00:00:43;1.30;;;0.80;;
34567;SDS011;20806;50.746;7.116;2022-08-21T00:03:09;0.80;;;0.70;;
34567;SDS011;20806;50.746;7.116;2022-08-21T00:05:38;1.50;;;0.80;;
34567;SDS011;20806;50.746;7.116;2022-08-21T00:08:04;0.85;;;0.70;;
34567;SDS011;20806;50.746;7.116;2022-08-21T00:10:31;0.98;;;0.70;;
34567;SDS011;20806;50.746;7.116;2022-08-21T00:12:57;1.02;;;0.65;;
34567;SDS011;20806;50.746;7.116;2022-08-21T00:15:25;1.20;;;0.75;;
34567;SDS011;20806;50.746;7.116;2022-08-21T00:17:51;1.33;;;0.90;;
34567;SDS011;20806;50.746;7.116;2022-08-21T00:20:18;0.80;;;0.80;;
34567;SDS011;20806;50.746;7.116;2022-08-21T00:22:44;0.70;;;0.70;;
34567;SDS011;20806;50.746;7.116;2022-08-21T00:25:11;1.30;;;1.20;;
34567;SDS011;20806;50.746;7.116;2022-08-21T00:27:37;1.30;;;1.20;;
34567;SDS011;20806;50.746;7.116;2022-08-21T00:30:07;1.27;;;1.17;;
34567;SDS011;20806;50.746;7.116;2022-08-21T00:32:33;1.40;;;1.30;;
34567;SDS011;20806;50.746;7.116;2022-08-21T00:34:59;1.30;;;1.20;;
34567;SDS011;20806;50.746;7.116;2022-08-21T00:37:25;1.00;;;1.00;;
34567;SDS011;20806;50.746;7.116;2022-08-21T00:39:52;1.00;;;0.90;;
34567;SDS011;20806;50.746;7.116;2022-08-21T00:42:18;0.97;;;0.97;;
34567;SDS011;20806;50.746;7.116;2022-08-21T00:44:46;0.80;;;0.80;;
34567;SDS011;20806;50.746;7.116;2022-08-21T00:47:12;0.80;;;0.80;;
34567;SDS011;20806;50.746;7.116;2022-08-21T00:49:38;1.30;;;1.20;;
34567;SDS011;20806;50.746;7.116;2022-08-21T00:52:06;1.23;;;1.13;;
34567;SDS011;20806;50.746;7.116;2022-08-21T00:54:32;1.30;;;1.20;;
34567;SDS011;20806;50.746;7.116;2022-08-21T00:57:00;1.50;;;1.00;;
34567;SDS011;20806;50.746;7.116;2022-08-21T00:59:27;0.90;;;0.90;;
34567;SDS011;20806;50.746;7.116;2022-08-21T01:01:54;0.90;;;0.90;;
34567;SDS011;20806;50.746;7.116;2022-08-21T01:04:20;0.95;;;0.90;;
34567;SDS011;20806;50.746;7.116;2022-08-21T01:06:47;1.00;;;0.90;;
34567;SDS011;20806;50.746;7.116;2022-08-21T01:09:14;1.38;;;1.00;;
34567;SDS011;20806;50.746;7.116;2022-08-21T01:11:40;0.95;;;0.90;;
34567;SDS011;20806;50.746;7.116;2022-08-21T01:14:08;2.10;;;1.30;;
34567;SDS011;20806;50.746;7.116;2022-08-21T01:16:37;1.10;;;1.00;;
34567;SDS011;20806;50.746;7.116;2022-08-21T01:19:03;1.33;;;1.00;;
34567;SDS011;20806;50.746;7.116;2022-08-21T01:21:30;1.30;;;1.20;;
34567;SDS011;20806;50.746;7.116;2022-08-21T01:23:56;1.30;;;1.20;;
34567;SDS011;20806;50.746;7.116;2022-08-21T01:26:23;1.50;;;1.40;;
34567;SDS011;20806;50.746;7.116;2022-08-21T01:28:52;1.40;;;1.30;;
34567;SDS011;20806;50.746;7.116;2022-08-21T01:31:20;1.23;;;1.13;;
34567;SDS011;20806;50.746;7.116;2022-08-21T01:33:48;1.50;;;1.37;;
34567;SDS011;20806;50.746;7.116;2022-08-21T01:36:14;1.45;;;1.35;;
34567;SDS011;20806;50.746;7.116;2022-08-21T01:38:40;1.20;;;1.10;;
34567;SDS011;20806;50.746;7.116;2022-08-21T01:41:06;1.20;;;1.10;;
34567;SDS011;20806;50.746;7.116;2022-08-21T01:43:32;1.20;;;1.10;;
34567;SDS011;20806;50.746;7.116;2022-08-21T01:45:58;1.25;;;1.15;;
34567;SDS011;20806;50.746;7.116;2022-08-21T01:48:24;1.13;;;1.02;;
34567;SDS011;20806;50.746;7.116;2022-08-21T01:50:50;0.88;;;0.88;;
34567;SDS011;20806;50.746;7.116;2022-08-21T01:53:16;0.98;;;0.98;;
34567;SDS011;20806;50.746;7.116;2022-08-21T01:55:43;1.30;;;1.10;;
34567;SDS011;20806;50.746;7.116;2022-08-21T01:58:09;0.98;;;0.90;;
34567;SDS011;20806;50.746;7.116;2022-08-21T02:00:35;1.30;;;1.00;;
34567;SDS011;20806;50.746;7.116;2022-08-21T02:03:01;1.25;;;1.15;;
34567;SDS011;20806;50.746;7.116;2022-08-21T02:05:27;1.40;;;1.30;;
34567;SDS011;20806;50.746;7.116;2022-08-21T02:07:53;1.40;;;1.20;;
34567;SDS011;20806;50.746;7.116;2022-08-21T02:10:21;1.10;;;1.00;;
34567;SDS011;20806;50.746;7.116;2022-08-21T02:12:48;0.90;;;0.90;;
34567;SDS011;20806;50.746;7.116;2022-08-21T02:15:15;1.47;;;1.20;;
34567;SDS011;20806;50.746;7.116;2022-08-21T02:17:43;1.42;;;1.30;;
34567;SDS011;20806;50.746;7.116;2022-08-21T02:20:10;1.45;;;1.35;;
34567;SDS011;20806;50.746;7.116;2022-08-21T02:22:36;1.73;;;1.63;;
34567;SDS011;20806;50.746;7.116;2022-08-21T02:25:03;2.23;;;2.03;;
34567;SDS011;20806;50.746;7.116;2022-08-21T02:27:29;2.20;;;2.00;;
34567;SDS011;20806;50.746;7.116;2022-08-21T02:29:56;2.20;;;1.95;;
34567;SDS011;20806;50.746;7.116;2022-08-21T02:32:22;1.60;;;1.50;;
34567;SDS011;20806;50.746;7.116;2022-08-21T02:34:48;1.80;;;1.55;;
34567;SDS011;20806;50.746;7.116;2022-08-21T02:37:14;3.10;;;2.70;;
34567;SDS011;20806;50.746;7.116;2022-08-21T02:39:40;3.25;;;2.53;;
34567;SDS011;20806;50.746;7.116;2022-08-21T02:42:06;3.53;;;3.10;;
34567;SDS011;20806;50.746;7.116;2022-08-21T02:44:32;4.32;;;3.75;;
34567;SDS011;20806;50.746;7.116;2022-08-21T02:47:02;3.63;;;2.92;;
34567;SDS011;20806;50.746;7.116;2022-08-21T02:49:28;2.75;;;2.30;;
34567;SDS011;20806;50.746;7.116;2022-08-21T02:51:54;3.00;;;2.65;;
34567;SDS011;20806;50.746;7.116;2022-08-21T02:54:20;3.42;;;2.80;;
34567;SDS011;20806;50.746;7.116;2022-08-21T02:56:46;3.92;;;2.95;;
34567;SDS011;20806;50.746;7.116;2022-08-21T02:59:13;4.45;;;3.63;;
34567;SDS011;20806;50.746;7.116;2022-08-21T03:01:39;3.20;;;2.60;;
34567;SDS011;20806;50.746;7.116;2022-08-21T03:04:05;2.87;;;2.43;;
34567;SDS011;20806;50.746;7.116;2022-08-21T03:06:31;3.13;;;2.60;;
34567;SDS011;20806;50.746;7.116;2022-08-21T03:08:58;2.40;;;2.20;;
34567;SDS011;20806;50.746;7.116;2022-08-21T03:11:24;2.22;;;1.83;;
34567;SDS011;20806;50.746;7.116;2022-08-21T03:13:51;2.85;;;2.13;;
34567;SDS011;20806;50.746;7.116;2022-08-21T03:16:17;3.73;;;2.30;;
34567;SDS011;20806;50.746;7.116;2022-08-21T03:18:44;2.13;;;1.92;;
34567;SDS011;20806;50.746;7.116;2022-08-21T03:21:11;2.10;;;1.88;;
34567;SDS011;20806;50.746;7.116;2022-08-21T03:23:38;2.00;;;1.80;;
34567;SDS011;20806;50.746;7.116;2022-08-21T03:26:05;1.88;;;1.60;;
34567;SDS011;20806;50.746;7.116;2022-08-21T03:28:31;1.58;;;1.48;;
34567;SDS011;20806;50.746;7.116;2022-08-21T03:30:57;1.70;;;1.60;;
34567;SDS011;20806;50.746;7.116;2022-08-21T03:33:23;1.65;;;1.55;;
34567;SDS011;20806;50.746;7.116;2022-08-21T03:35:54;1.70;;;1.55;;
34567;SDS011;20806;50.746;7.116;2022-08-21T03:38:21;2.30;;;1.90;;
34567;SDS011;20806;50.746;7.116;2022-08-21T03:40:47;1.70;;;1.60;;
34567;SDS011;20806;50.746;7.116;2022-08-21T03:43:14;1.80;;;1.70;;
34567;SDS011;20806;50.746;7.116;2022-08-21T03:45:41;2.13;;;1.60;;
34567;SDS011;20806;50.746;7.116;2022-08-21T03:48:08;1.77;;;1.48;;
34567;SDS011;20806;50.746;7.116;2022-08-21T03:50:35;1.60;;;1.50;;
34567;SDS011;20806;50.746;7.116;2022-08-21T03:53:02;1.48;;;1.35;;
34567;SDS011;20806;50.746;7.116;2022-08-21T03:55:28;1.30;;;1.20;;
34567;SDS011;20806;50.746;7.116;2022-08-21T03:57:54;1.52;;;1.25;;
34567;SDS011;20806;50.746;7.116;2022-08-21T04:00:20;1.30;;;1.05;;
34567;SDS011;20806;50.746;7.116;2022-08-21T04:02:47;1.60;;;1.00;;
34567;SDS011;20806;50.746;7.116;2022-08-21T04:05:14;1.30;;;1.20;;
34567;SDS011;20806;50.746;7.116;2022-08-21T04:07:55;2.00;;;1.70;;
34567;SDS011;20806;50.746;7.116;2022-08-21T04:10:22;1.75;;;1.27;;
34567;SDS011;20806;50.746;7.116;2022-08-21T04:12:49;1.43;;;1.03;;
34567;SDS011;20806;50.746;7.116;2022-08-21T04:15:15;1.40;;;1.00;;
34567;SDS011;20806;50.746;7.116;2022-08-21T04:17:42;1.40;;;1.08;;
34567;SDS011;20806;50.746;7.116;2022-08-21T04:20:08;1.38;;;1.13;;
34567;SDS011;20806;50.746;7.116;2022-08-21T04:22:34;1.20;;;1.10;;
34567;SDS011;20806;50.746;7.116;2022-08-21T04:25:00;1.33;;;1.23;;
34567;SDS011;20806;50.746;7.116;2022-08-21T04:27:26;0.98;;;0.98;;
34567;SDS011;20806;50.746;7.116;2022-08-21T04:29:52;1.13;;;1.02;;
34567;SDS011;20806;50.746;7.116;2022-08-21T04:32:22;1.48;;;1.17;;
34567;SDS011;20806;50.746;7.116;2022-08-21T04:34:48;1.40;;;1.20;;
34567;SDS011;20806;50.746;7.116;2022-08-21T04:37:14;1.23;;;1.13;;
34567;SDS011;20806;50.746;7.116;2022-08-21T04:39:40;1.40;;;1.10;;
34567;SDS011;20806;50.746;7.116;2022-08-21T04:42:06;1.20;;;1.10;;
34567;SDS011;20806;50.746;7.116;2022-08-21T04:44:33;0.82;;;0.75;;
34567;SDS011;20806;50.746;7.116;2022-08-21T04:46:59;1.17;;;0.90;;
34567;SDS011;20806;50.746;7.116;2022-08-21T04:49:26;0.98;;;0.90;;
34567;SDS011;20806;50.746;7.116;2022-08-21T04:51:52;1.10;;;1.00;;
34567;SDS011;20806;50.746;7.116;2022-08-21T04:54:19;0.93;;;0.80;;
34567;SDS011;20806;50.746;7.116;2022-08-21T04:56:52;1.10;;;0.90;;
34567;SDS011;20806;50.746;7.116;2022-08-21T04:59:21;1.00;;;0.90;;
34567;SDS011;20806;50.746;7.116;2022-08-21T05:01:48;1.00;;;0.90;;
34567;SDS011;20806;50.746;7.116;2022-08-21T05:04:15;0.93;;;0.80;;
34567;SDS011;20806;50.746;7.116;2022-08-21T05:06:43;1.02;;;0.80;;
34567;SDS011;20806;50.746;7.116;2022-08-21T05:09:11;1.23;;;1.10;;
34567;SDS011;20806;50.746;7.116;2022-08-21T05:11:38;1.70;;;1.23;;
34567;SDS011;20806;50.746;7.116;2022-08-21T05:14:05;1.50;;;1.30;;
34567;SDS011;20806;50.746;7.116;2022-08-21T05:16:31;1.17;;;1.08;;
34567;SDS011;20806;50.746;7.116;2022-08-21T05:18:57;1.13;;;1.00;;
34567;SDS011;20806;50.746;7.116;2022-08-21T05:21:23;1.20;;;1.10;;
34567;SDS011;20806;50.746;7.116;2022-08-21T05:23:49;1.00;;;0.90;;
34567;SDS011;20806;50.746;7.116;2022-08-21T05:26:15;0.93;;;0.90;;
34567;SDS011;20806;50.746;7.116;2022-08-21T05:28:41;0.82;;;0.80;;
34567;SDS011;20806;50.746;7.116;2022-08-21T05:31:07;1.05;;;0.77;;
34567;SDS011;20806;50.746;7.116;2022-08-21T05:33:33;1.10;;;0.85;;
34567;SDS011;20806;50.746;7.116;2022-08-21T05:35:59;1.00;;;0.90;;
34567;SDS011;20806;50.746;7.116;2022-08-21T05:38:26;1.00;;;0.80;;
34567;SDS011;20806;50.746;7.116;2022-08-21T05:40:53;1.13;;;0.90;;
34567;SDS011;20806;50.746;7.116;2022-08-21T05:43:19;1.00;;;0.80;;
34567;SDS011;20806;50.746;7.116;2022-08-21T05:45:45;0.90;;;0.70;;
34567;SDS011;20806;50.746;7.116;2022-08-21T05:48:22;1.85;;;0.90;;
34567;SDS011;20806;50.746;7.116;2022-08-21T05:50:49;1.10;;;0.80;;
34567;SDS011;20806;50.746;7.116;2022-08-21T05:53:15;0.70;;;0.70;;
34567;SDS011;20806;50.746;7.116;2022-08-21T05:55:42;0.70;;;0.70;;
34567;SDS011;20806;50.746;7.116;2022-08-21T05:58:08;0.68;;;0.68;;
34567;SDS011;20806;50.746;7.116;2022-08-21T06:00:34;1.50;;;0.73;;
34567;SDS011;20806;50.746;7.116;2022-08-21T06:03:00;0.85;;;0.80;;
34567;SDS011;20806;50.746;7.116;2022-08-21T06:05:26;0.60;;;0.60;;
34567;SDS011;20806;50.746;7.116;2022-08-21T06:07:52;1.15;;;0.65;;
34567;SDS011;20806;50.746;7.116;2022-08-21T06:10:18;0.60;;;0.60;;
34567;SDS011;20806;50.746;7.116;2022-08-21T06:12:44;1.10;;;0.75;;
34567;SDS011;20806;50.746;7.116;2022-08-21T06:15:11;0.60;;;0.60;;
34567;SDS011;20806;50.746;7.116;2022-08-21T06:17:37;0.70;;;0.40;;
34567;SDS011;20806;50.746;7.116;2022-08-21T06:20:03;0.90;;;0.50;;
34567;SDS011;20806;50.746;7.116;2022-08-21T06:22:29;0.70;;;0.60;;
34567;SDS011;20806;50.746;7.116;2022-08-21T06:24:55;0.60;;;0.60;;
34567;SDS011;20806;50.746;7.116;2022-08-21T06:27:21;1.30;;;0.50;;
34567;SDS011;20806;50.746;7.116;2022-08-21T06:29:51;0.70;;;0.57;;
34567;SDS011;20806;50.746;7.116;2022-08-21T06:32:17;0.60;;;0.60;;
34567;SDS011;20806;50.746;7.116;2022-08-21T06:34:43;0.75;;;0.70;;
34567;SDS011;20806;50.746;7.116;2022-08-21T06:37:09;0.90;;;0.70;;
34567;SDS011;20806;50.746;7.116;2022-08-21T06:39:35;1.08;;;0.98;;
34567;SDS011;20806;50.746;7.116;2022-08-21T06:42:01;1.20;;;1.10;;
34567;SDS011;20806;50.746;7.116;2022-08-21T06:44:28;1.00;;;0.90;;
34567;SDS011;20806;50.746;7.116;2022-08-21T06:46:55;1.00;;;0.90;;
34567;SDS011;20806;50.746;7.116;2022-08-21T06:49:21;0.73;;;0.73;;
34567;SDS011;20806;50.746;7.116;2022-08-21T06:51:47;1.10;;;0.77;;
34567;SDS011;20806;50.746;7.116;2022-08-21T06:54:13;0.77;;;0.70;;
34567;SDS011;20806;50.746;7.116;2022-08-21T06:56:40;0.80;;;0.60;;
34567;SDS011;20806;50.746;7.116;2022-08-21T06:59:06;0.80;;;0.60;;
34567;SDS011;20806;50.746;7.116;2022-08-21T07:01:32;0.80;;;0.60;;
34567;SDS011;20806;50.746;7.116;2022-08-21T07:03:58;1.15;;;0.60;;
34567;SDS011;20806;50.746;7.116;2022-08-21T07:06:24;1.08;;;0.60;;
34567;SDS011;20806;50.746;7.116;2022-08-21T07:08:50;0.65;;;0.50;;
34567;SDS011;20806;50.746;7.116;2022-08-21T07:11:18;1.10;;;0.40;;
34567;SDS011;20806;50.746;7.116;2022-08-21T07:13:45;0.95;;;0.50;;
34567;SDS011;20806;50.746;7.116;2022-08-21T07:16:11;0.50;;;0.50;;
34567;SDS011;20806;50.746;7.116;2022-08-21T07:18:37;0.80;;;0.60;;
34567;SDS011;20806;50.746;7.116;2022-08-21T07:21:04;0.60;;;0.50;;
34567;SDS011;20806;50.746;7.116;2022-08-21T07:23:36;1.95;;;0.60;;
34567;SDS011;20806;50.746;7.116;2022-08-21T07:26:02;0.70;;;0.50;;
34567;SDS011;20806;50.746;7.116;2022-08-21T07:28:29;0.75;;;0.55;;
34567;SDS011;20806;50.746;7.116;2022-08-21T07:30:56;0.73;;;0.43;;
34567;SDS011;20806;50.746;7.116;2022-08-21T07:33:24;0.88;;;0.40;;
34567;SDS011;20806;50.746;7.116;2022-08-21T07:35:50;0.40;;;0.30;;
34567;SDS011;20806;50.746;7.116;2022-08-21T07:38:16;0.38;;;0.30;;
34567;SDS011;20806;50.746;7.116;2022-08-21T07:40:43;1.10;;;0.47;;
34567;SDS011;20806;50.746;7.116;2022-08-21T07:43:10;0.60;;;0.45;;
34567;SDS011;20806;50.746;7.116;2022-08-21T07:45:36;1.20;;;0.40;;
34567;SDS011;20806;50.746;7.116;2022-08-21T07:48:03;0.70;;;0.40;;
34567;SDS011;20806;50.746;7.116;2022-08-21T07:50:29;0.95;;;0.45;;
34567;SDS011;20806;50.746;7.116;2022-08-21T07:52:55;0.80;;;0.47;;
34567;SDS011;20806;50.746;7.116;2022-08-21T07:55:21;0.40;;;0.40;;
34567;SDS011;20806;50.746;7.116;2022-08-21T07:57:47;1.05;;;0.50;;
34567;SDS011;20806;50.746;7.116;2022-08-21T08:00:15;0.67;;;0.50;;
34567;SDS011;20806;50.746;7.116;2022-08-21T08:02:43;0.83;;;0.60;;
34567;SDS011;20806;50.746;7.116;2022-08-21T08:05:10;0.55;;;0.50;;
34567;SDS011;20806;50.746;7.116;2022-08-21T08:07:36;0.50;;;0.50;;
34567;SDS011;20806;50.746;7.116;2022-08-21T08:10:03;0.60;;;0.50;;
34567;SDS011;20806;50.746;7.116;2022-08-21T08:12:31;0.52;;;0.50;;
34567;SDS011;20806;50.746;7.116;2022-08-21T08:14:58;0.47;;;0.40;;
34567;SDS011;20806;50.746;7.116;2022-08-21T08:17:25;0.63;;;0.40;;
34567;SDS011;20806;50.746;7.116;2022-08-21T08:19:51;0.85;;;0.40;;
34567;SDS011;20806;50.746;7.116;2022-08-21T08:22:18;0.50;;;0.30;;
34567;SDS011;20806;50.746;7.116;2022-08-21T08:24:45;0.90;;;0.30;;
34567;SDS011;20806;50.746;7.116;2022-08-21T08:27:12;0.40;;;0.30;;
34567;SDS011;20806;50.746;7.116;2022-08-21T08:29:38;0.80;;;0.40;;
34567;SDS011;20806;50.746;7.116;2022-08-21T08:32:04;0.30;;;0.30;;
34567;SDS011;20806;50.746;7.116;2022-08-21T08:34:32;0.83;;;0.37;;
34567;SDS011;20806;50.746;7.116;2022-08-21T08:36:58;0.80;;;0.30;;
34567;SDS011;20806;50.746;7.116;2022-08-21T08:39:24;1.07;;;0.37;;
34567;SDS011;20806;50.746;7.116;2022-08-21T08:41:54;0.30;;;0.30;;
34567;SDS011;20806;50.746;7.116;2022-08-21T08:44:22;0.40;;;0.22;;
34567;SDS011;20806;50.746;7.116;2022-08-21T08:46:48;0.20;;;0.20;;
34567;SDS011;20806;50.746;7.116;2022-08-21T08:49:20;0.30;;;0.20;;
34567;SDS011;20806;50.746;7.116;2022-08-21T08:51:53;0.40;;;0.30;;
34567;SDS011;20806;50.746;7.116;2022-08-21T08:54:34;0.50;;;0.30;;
34567;SDS011;20806;50.746;7.116;2022-08-21T08:57:01;0.75;;;0.35;;
34567;SDS011;20806;50.746;7.116;2022-08-21T08:59:42;0.50;;;0.30;;
34567;SDS011;20806;50.746;7.116;2022-08-21T09:02:12;0.60;;;0.40;;
34567;SDS011;20806;50.746;7.116;2022-08-21T09:04:38;0.90;;;0.43;;
34567;SDS011;20806;50.746;7.116;2022-08-21T09:09:58;0.60;;;0.30;;
34567;SDS011;20806;50.746;7.116;2022-08-21T09:25:24;0.60;;;0.20;;
34567;SDS011;20806;50.746;7.116;2022-08-21T09:27:51;0.82;;;0.30;;
34567;SDS011;20806;50.746;7.116;2022-08-21T09:30:17;0.20;;;0.20;;
34567;SDS011;20806;50.746;7.116;2022-08-21T09:32:43;0.60;;;0.30;;
34567;SDS011;20806;50.746;7.116;2022-08-21T09:35:17;1.13;;;0.30;;
34567;SDS011;20806;50.746;7.116;2022-08-21T09:37:50;0.50;;;0.30;;
34567;SDS011;20806;50.746;7.116;2022-08-21T09:45:27;0.52;;;0.30;;
34567;SDS011;20806;50.746;7.116;2022-08-21T09:47:53;0.52;;;0.30;;
34567;SDS011;20806;50.746;7.116;2022-08-21T09:50:24;0.70;;;0.30;;
34567;SDS011;20806;50.746;7.116;2022-08-21T09:52:53;0.70;;;0.30;;
34567;SDS011;20806;50.746;7.116;2022-08-21T09:55:23;0.60;;;0.20;;
34567;SDS011;20806;50.746;7.116;2022-08-21T09:58:11;0.38;;;0.20;;
34567;SDS011;20806;50.746;7.116;2022-08-21T10:00:37;0.40;;;0.20;;
34567;SDS011;20806;50.746;7.116;2022-08-21T10:03:07;0.55;;;0.20;;
34567;SDS011;20806;50.746;7.116;2022-08-21T10:05:33;0.87;;;0.37;;
34567;SDS011;20806;50.746;7.116;2022-08-21T10:08:00;0.38;;;0.38;;
34567;SDS011;20806;50.746;7.116;2022-08-21T10:10:28;0.75;;;0.20;;
34567;SDS011;20806;50.746;7.116;2022-08-21T10:13:16;0.60;;;0.20;;
34567;SDS011;20806;50.746;7.116;2022-08-21T10:21:02;0.40;;;0.13;;
34567;SDS011;20806;50.746;7.116;2022-08-21T10:32:05;0.80;;;0.30;;
34567;SDS011;20806;50.746;7.116;2022-08-21T10:39:36;0.30;;;0.20;;
34567;SDS011;20806;50.746;7.116;2022-08-21T10:42:01;0.40;;;0.20;;
34567;SDS011;20806;50.746;7.116;2022-08-21T10:47:05;0.30;;;0.20;;
34567;SDS011;20806;50.746;7.116;2022-08-21T10:49:40;0.70;;;0.30;;
34567;SDS011;20806;50.746;7.116;2022-08-21T10:57:05;0.70;;;0.37;;
34567;SDS011;20806;50.746;7.116;2022-08-21T10:59:44;0.40;;;0.30;;
34567;SDS011;20806;50.746;7.116;2022-08-21T11:02:15;0.38;;;0.30;;
34567;SDS011;20806;50.746;7.116;2022-08-21T11:04:56;0.25;;;0.25;;
34567;SDS011;20806;50.746;7.116;2022-08-21T11:07:45;0.50;;;0.40;;
34567;SDS011;20806;50.746;7.116;2022-08-21T11:12:43;0.63;;;0.30;;
34567;SDS011;20806;50.746;7.116;2022-08-21T11:15:45;0.60;;;0.30;;
34567;SDS011;20806;50.746;7.116;2022-08-21T11:20:34;0.60;;;0.30;;
34567;SDS011;20806;50.746;7.116;2022-08-21T11:23:22;0.60;;;0.30;;
34567;SDS011;20806;50.746;7.116;2022-08-21T11:25:52;0.40;;;0.40;;
34567;SDS011;20806;50.746;7.116;2022-08-21T11:31:00;0.63;;;0.30;;
34567;SDS011;20806;50.746;7.116;2022-08-21T11:36:02;0.45;;;0.30;;
34567;SDS011;20806;50.746;7.116;2022-08-21T11:38:45;0.40;;;0.30;;
34567;SDS011;20806;50.746;7.116;2022-08-21T11:41:28;0.40;;;0.20;;
34567;SDS011;20806;50.746;7.116;2022-08-21T11:54:38;1.25;;;0.30;;
34567;SDS011;20806;50.746;7.116;2022-08-21T11:59:40;0.52;;;0.30;;
34567;SDS011;20806;50.746;7.116;2022-08-21T12:02:10;0.40;;;0.40;;
34567;SDS011;20806;50.746;7.116;2022-08-21T12:04:42;0.50;;;0.40;;
34567;SDS011;20806;50.746;7.116;2022-08-21T12:07:10;0.90;;;0.33;;
34567;SDS011;20806;50.746;7.116;2022-08-21T12:09:36;1.43;;;0.37;;
34567;SDS011;20806;50.746;7.116;2022-08-21T12:14:42;0.50;;;0.32;;
34567;SDS011;20806;50.746;7.116;2022-08-21T12:17:15;0.77;;;0.32;;
34567;SDS011;20806;50.746;7.116;2022-08-21T12:19:43;0.73;;;0.40;;
34567;SDS011;20806;50.746;7.116;2022-08-21T12:22:11;0.28;;;0.20;;
34567;SDS011;20806;50.746;7.116;2022-08-21T12:24:39;0.30;;;0.22;;
34567;SDS011;20806;50.746;7.116;2022-08-21T12:27:17;0.20;;;0.10;;
34567;SDS011;20806;50.746;7.116;2022-08-21T12:29:47;0.10;;;0.10;;
34567;SDS011;20806;50.746;7.116;2022-08-21T12:34:49;0.40;;;0.15;;
34567;SDS011;20806;50.746;7.116;2022-08-21T12:37:38;0.28;;;0.10;;
34567;SDS011;20806;50.746;7.116;2022-08-21T12:40:10;0.10;;;0.10;;
34567;SDS011;20806;50.746;7.116;2022-08-21T12:42:38;0.10;;;0.10;;
34567;SDS011;20806;50.746;7.116;2022-08-21T12:45:16;0.10;;;0.10;;
34567;SDS011;20806;50.746;7.116;2022-08-21T12:55:51;0.20;;;0.10;;
34567;SDS011;20806;50.746;7.116;2022-08-21T12:58:18;0.15;;;0.10;;
34567;SDS011;20806;50.746;7.116;2022-08-21T13:00:47;0.17;;;0.10;;
34567;SDS011;20806;50.746;7.116;2022-08-21T13:03:14;0.10;;;0.10;;
34567;SDS011;20806;50.746;7.116;2022-08-21T13:05:40;0.10;;;0.10;;
34567;SDS011;20806;50.746;7.116;2022-08-21T13:08:07;0.13;;;0.10;;
34567;SDS011;20806;50.746;7.116;2022-08-21T13:10:34;0.10;;;0.10;;
34567;SDS011;20806;50.746;7.116;2022-08-21T13:13:02;0.10;;;0.10;;
34567;SDS011;20806;50.746;7.116;2022-08-21T13:15:30;0.10;;;0.10;;
34567;SDS011;20806;50.746;7.116;2022-08-21T13:17:57;0.20;;;0.10;;
34567;SDS011;20806;50.746;7.116;2022-08-21T13:20:29;0.25;;;0.20;;
34567;SDS011;20806;50.746;7.116;2022-08-21T13:22:55;0.13;;;0.10;;
34567;SDS011;20806;50.746;7.116;2022-08-21T13:25:25;0.30;;;0.20;;
34567;SDS011;20806;50.746;7.116;2022-08-21T13:28:08;0.20;;;0.10;;
34567;SDS011;20806;50.746;7.116;2022-08-21T13:30:40;0.20;;;0.20;;
34567;SDS011;20806;50.746;7.116;2022-08-21T13:33:08;0.10;;;0.10;;
34567;SDS011;20806;50.746;7.116;2022-08-21T13:38:17;0.28;;;0.13;;
34567;SDS011;20806;50.746;7.116;2022-08-21T13:40:47;0.32;;;0.20;;
34567;SDS011;20806;50.746;7.116;2022-08-21T13:43:16;0.17;;;0.10;;
34567;SDS011;20806;50.746;7.116;2022-08-21T13:45:44;0.50;;;0.10;;
34567;SDS011;20806;50.746;7.116;2022-08-21T13:48:10;0.10;;;0.10;;
34567;SDS011;20806;50.746;7.116;2022-08-21T13:50:36;0.30;;;0.10;;
34567;SDS011;20806;50.746;7.116;2022-08-21T13:53:05;0.43;;;0.15;;
34567;SDS011;20806;50.746;7.116;2022-08-21T13:55:39;0.70;;;0.30;;
34567;SDS011;20806;50.746;7.116;2022-08-21T13:58:05;0.90;;;0.20;;
34567;SDS011;20806;50.746;7.116;2022-08-21T14:00:32;0.20;;;0.10;;
34567;SDS011;20806;50.746;7.116;2022-08-21T14:03:06;0.13;;;0.10;;
34567;SDS011;20806;50.746;7.116;2022-08-21T14:05:33;0.30;;;0.10;;
34567;SDS011;20806;50.746;7.116;2022-08-21T14:08:13;0.30;;;0.20;;
34567;SDS011;20806;50.746;7.116;2022-08-21T14:10:41;0.20;;;0.20;;
34567;SDS011;20806;50.746;7.116;2022-08-21T14:13:14;0.20;;;0.20;;
34567;SDS011;20806;50.746;7.116;2022-08-21T14:15:46;0.20;;;0.17;;
34567;SDS011;20806;50.746;7.116;2022-08-21T14:18:19;0.20;;;0.10;;
34567;SDS011;20806;50.746;7.116;2022-08-21T14:20:45;0.10;;;0.10;;
34567;SDS011;20806;50.746;7.116;2022-08-21T14:23:11;0.20;;;0.13;;
34567;SDS011;20806;50.746;7.116;2022-08-21T14:25:40;0.20;;;0.20;;
34567;SDS011;20806;50.746;7.116;2022-08-21T14:28:12;0.20;;;0.10;;
34567;SDS011;20806;50.746;7.116;2022-08-21T14:30:41;0.22;;;0.20;;
34567;SDS011;20806;50.746;7.116;2022-08-21T14:33:12;0.45;;;0.10;;
34567;SDS011;20806;50.746;7.116;2022-08-21T14:35:39;0.10;;;0.10;;
34567;SDS011;20806;50.746;7.116;2022-08-21T14:38:12;0.22;;;0.10;;
34567;SDS011;20806;50.746;7.116;2022-08-21T14:40:39;0.32;;;0.20;;
34567;SDS011;20806;50.746;7.116;2022-08-21T14:43:05;0.20;;;0.17;;
34567;SDS011;20806;50.746;7.116;2022-08-21T14:45:33;0.40;;;0.20;;
34567;SDS011;20806;50.746;7.116;2022-08-21T14:47:59;0.38;;;0.20;;
34567;SDS011;20806;50.746;7.116;2022-08-21T14:50:25;0.50;;;0.20;;
34567;SDS011;20806;50.746;7.116;2022-08-21T14:52:51;0.15;;;0.10;;
34567;SDS011;20806;50.746;7.116;2022-08-21T14:55:17;0.37;;;0.10;;
34567;SDS011;20806;50.746;7.116;2022-08-21T14:57:48;0.20;;;0.10;;
34567;SDS011;20806;50.746;7.116;2022-08-21T15:00:16;0.20;;;0.20;;
34567;SDS011;20806;50.746;7.116;2022-08-21T15:02:42;0.98;;;0.15;;
34567;SDS011;20806;50.746;7.116;2022-08-21T15:05:09;1.20;;;0.20;;
34567;SDS011;20806;50.746;7.116;2022-08-21T15:07:35;0.40;;;0.20;;
34567;SDS011;20806;50.746;7.116;2022-08-21T15:10:01;0.20;;;0.13;;
34567;SDS011;20806;50.746;7.116;2022-08-21T15:12:27;0.55;;;0.20;;
34567;SDS011;20806;50.746;7.116;2022-08-21T15:14:54;0.30;;;0.20;;
34567;SDS011;20806;50.746;7.116;2022-08-21T15:17:20;0.50;;;0.30;;
34567;SDS011;20806;50.746;7.116;2022-08-21T15:19:46;0.20;;;0.20;;
34567;SDS011;20806;50.746;7.116;2022-08-21T15:22:13;0.20;;;0.20;;
34567;SDS011;20806;50.746;7.116;2022-08-21T15:24:39;0.30;;;0.20;;
34567;SDS011;20806;50.746;7.116;2022-08-21T15:27:06;1.10;;;0.20;;
34567;SDS011;20806;50.746;7.116;2022-08-21T15:29:35;0.30;;;0.20;;
34567;SDS011;20806;50.746;7.116;2022-08-21T15:32:25;0.13;;;0.10;;
34567;SDS011;20806;50.746;7.116;2022-08-21T15:34:51;0.57;;;0.30;;
34567;SDS011;20806;50.746;7.116;2022-08-21T15:37:18;0.20;;;0.20;;
34567;SDS011;20806;50.746;7.116;2022-08-21T15:39:44;0.47;;;0.20;;
34567;SDS011;20806;50.746;7.116;2022-08-21T15:42:10;0.90;;;0.28;;
34567;SDS011;20806;50.746;7.116;2022-08-21T15:44:37;0.47;;;0.25;;
34567;SDS011;20806;50.746;7.116;2022-08-21T15:47:04;1.30;;;0.30;;
34567;SDS011;20806;50.746;7.116;2022-08-21T15:49:30;0.60;;;0.20;;
34567;SDS011;20806;50.746;7.116;2022-08-21T15:51:56;0.80;;;0.20;;
34567;SDS011;20806;50.746;7.116;2022-08-21T15:54:22;0.70;;;0.50;;
34567;SDS011;20806;50.746;7.116;2022-08-21T15:56:48;0.57;;;0.40;;
34567;SDS011;20806;50.746;7.116;2022-08-21T15:59:17;0.57;;;0.45;;
34567;SDS011;20806;50.746;7.116;2022-08-21T16:01:44;0.40;;;0.30;;
34567;SDS011;20806;50.746;7.116;2022-08-21T16:04:13;1.00;;;0.20;;
34567;SDS011;20806;50.746;7.116;2022-08-21T16:06:40;0.60;;;0.30;;
34567;SDS011;20806;50.746;7.116;2022-08-21T16:09:07;0.30;;;0.20;;
34567;SDS011;20806;50.746;7.116;2022-08-21T16:11:33;0.40;;;0.30;;
34567;SDS011;20806;50.746;7.116;2022-08-21T16:13:59;0.43;;;0.30;;
34567;SDS011;20806;50.746;7.116;2022-08-21T16:16:25;0.30;;;0.20;;
34567;SDS011;20806;50.746;7.116;2022-08-21T16:18:51;0.50;;;0.20;;